Bosler, WY (82051)

7:45 PM MST on December 09, 2016 (GMT -0700)
| | Change Station

Elev -9999 ft 0.00 °N, 0.00 °E | Updated 2 seconds ago

Mostly Cloudy
Mostly Cloudy
42 °F
Feels Like 42 °F
N
3
Wind Variable Wind from North
Gusts mph

Today
High -- | Low -- °F
--% Chance of Precip.
Yesterday
High -- | Low -- °F
Precip. -- in
Pressure 30.05 in
Visibility 10.0 miles
Clouds Few 4700 ft
Dew Point 39 °F
Humidity 90%
Rainfall --
Snow Depth Not available.
7:18 AM 4:32 PM
Waxing Gibbous, 79% visible
METAR KLAR 100153Z AUTO 24021KT 10SM FEW047 01/M05 A3004 RMK AO2 PK WND 23027/0126 SLP174 T00061050
Pressure 30.05 in
Visibility 10.0 miles
Clouds Few 4700 ft
Dew Point 39 °F
Humidity 90%
Rainfall --
Snow Depth Not available.
7:18 AM 4:32 PM
Waxing Gibbous, 79% visible
METAR KLAR 100153Z AUTO 24021KT 10SM FEW047 01/M05 A3004 RMK AO2 PK WND 23027/0126 SLP174 T00061050

10-Day Weather Forecast

Almanac

Astronomy

Dec. 09, 2016 Rise Set
Actual Time
Civil Twilight
Nautical Twilight
Astronomical Twilight
Moon
Length of Visible Light
Length of Day
Tomorrow will be .
, % of the Moon is Illuminated

Today's Extremes

State Highs State Lows

Community

WunderPhotos

Upload Photos

1,956,532 photos uploaded!

WunderBlog® & News

Nearby

Air Quality

  Air Quality AQ Index Pollutant
Not available.

Snow Depth

Station Depth Elevation

Earthquake Activity

City Distance Mag. Time & Date
Minimum magnitude displayed is 2.5.

Coastal Water Temperatures

Place Temperature

Stations

Nearby Weather Stations

Station Location Temp. Windchill Dew Point Humidity Wind Precip. Elev Updated Type
                   

Watches & Warnings

There are currently no watches in effect.